createdAt,value
2023-03-17T00:02:41.609Z,77.78
2023-03-17T00:06:43.561Z,77.69
2023-03-17T00:10:41.676Z,77.87
2023-03-17T00:14:39.518Z,78.22
2023-03-17T00:18:38.711Z,77.97
2023-03-17T00:22:36.487Z,77.87
2023-03-17T00:26:34.571Z,77.90
2023-03-17T00:30:32.855Z,77.99
2023-03-17T00:34:33.567Z,77.89
2023-03-17T00:38:33.513Z,77.89
2023-03-17T00:42:31.676Z,77.95
2023-03-17T00:46:33.654Z,78.13
2023-03-17T00:50:37.556Z,78.23
2023-03-17T00:54:35.525Z,78.33
2023-03-17T00:58:46.503Z,78.19
2023-03-17T01:02:45.441Z,78.42
2023-03-17T01:06:43.538Z,79.37
2023-03-17T01:10:43.528Z,79.68
2023-03-17T01:14:43.484Z,79.92
2023-03-17T01:18:41.494Z,79.79
2023-03-17T01:22:39.498Z,79.45
2023-03-17T01:26:37.431Z,79.22
2023-03-17T01:30:35.572Z,79.26
2023-03-17T01:34:35.397Z,79.67
2023-03-17T01:38:33.404Z,79.80
2023-03-17T01:42:31.437Z,79.53
2023-03-17T01:46:44.492Z,79.13
2023-03-17T01:50:42.575Z,78.84
2023-03-17T01:54:48.417Z,78.59
2023-03-17T01:58:47.352Z,78.51
2023-03-17T02:02:49.526Z,78.76
2023-03-17T02:06:57.457Z,79.85
2023-03-17T02:10:57.372Z,80.91
2023-03-17T02:14:55.413Z,81.57
2023-03-17T02:18:54.379Z,81.48
2023-03-17T02:22:53.484Z,81.40
2023-03-17T02:26:52.377Z,81.33
2023-03-17T02:30:51.478Z,81.16
2023-03-17T02:34:49.335Z,81.13
2023-03-17T02:38:47.298Z,80.94
2023-03-17T02:42:46.325Z,80.52
2023-03-17T02:46:44.297Z,80.28
2023-03-17T02:50:43.390Z,80.27
2023-03-17T02:54:41.393Z,80.19
2023-03-17T02:58:39.339Z,80.12
2023-03-17T03:02:37.356Z,80.08
2023-03-17T03:06:35.293Z,80.15
2023-03-17T03:10:33.261Z,80.25
2023-03-17T03:14:31.367Z,80.26
2023-03-17T03:18:22.464Z,80.34
2023-03-17T03:22:20.367Z,80.63
2023-03-17T03:26:18.261Z,80.65
2023-03-17T03:30:16.306Z,80.61
2023-03-17T03:34:14.277Z,80.53
2023-03-17T03:38:12.311Z,80.41
2023-03-17T03:42:10.333Z,80.22
2023-03-17T03:46:08.443Z,80.04
2023-03-17T03:50:06.294Z,79.94
2023-03-17T03:54:04.399Z,79.77
2023-03-17T03:58:02.250Z,79.69
2023-03-17T04:02:00.330Z,79.66
2023-03-17T04:05:58.180Z,79.62
2023-03-17T04:09:56.285Z,79.56
2023-03-17T04:13:55.283Z,79.56
2023-03-17T04:17:55.330Z,79.45
2023-03-17T04:21:47.460Z,79.50
2023-03-17T04:25:45.237Z,79.70
2023-03-17T04:29:43.153Z,79.83
2023-03-17T04:33:41.285Z,79.88
2023-03-17T04:37:39.163Z,80.00
2023-03-17T04:41:37.146Z,80.01
2023-03-17T04:45:35.175Z,80.06
2023-03-17T04:49:33.201Z,80.09
2023-03-17T04:53:31.182Z,80.25
2023-03-17T04:57:29.273Z,80.43
2023-03-17T05:01:27.174Z,80.22
2023-03-17T05:05:26.146Z,79.93
2023-03-17T05:09:25.144Z,79.52
2023-03-17T05:13:23.149Z,78.88
2023-03-17T05:17:21.104Z,78.13
2023-03-17T05:21:21.089Z,77.50
2023-03-17T05:25:19.082Z,77.24
2023-03-17T05:29:17.191Z,76.61
2023-03-17T05:33:15.074Z,75.61
2023-03-17T05:37:14.301Z,74.98
2023-03-17T05:41:15.033Z,74.95
2023-03-17T05:45:13.278Z,74.57
2023-03-17T05:49:11.176Z,74.45
2023-03-17T05:53:09.203Z,74.25
2023-03-17T05:57:07.049Z,74.14
2023-03-17T06:01:05.123Z,74.41
2023-03-17T06:05:03.202Z,74.11
2023-03-17T06:09:01.056Z,73.11
2023-03-17T06:12:59.064Z,72.98
2023-03-17T06:16:57.039Z,72.41
2023-03-17T06:20:55.010Z,72.69
2023-03-17T06:24:53.469Z,72.75
2023-03-17T06:28:52.000Z,73.06
2023-03-17T06:32:54.004Z,72.17
2023-03-17T06:36:52.050Z,71.47
2023-03-17T06:40:49.991Z,70.91
2023-03-17T06:44:47.925Z,70.24
2023-03-17T06:48:47.953Z,69.50
2023-03-17T06:52:47.934Z,68.64
2023-03-17T06:56:45.943Z,67.83
2023-03-17T07:00:23.996Z,66.89
2023-03-17T07:03:48.232Z,66.14
2023-03-17T07:07:12.217Z,65.48
2023-03-17T07:10:37.409Z,65.15
2023-03-17T07:14:01.512Z,64.58
2023-03-17T07:17:25.627Z,63.57
2023-03-17T07:20:49.602Z,62.37
2023-03-17T07:24:13.457Z,61.69
2023-03-17T07:27:37.922Z,59.91
2023-03-17T07:31:03.023Z,59.25
2023-03-17T07:34:27.594Z,58.69
2023-03-17T07:37:51.646Z,59.05
2023-03-17T07:41:15.618Z,58.63
2023-03-17T07:44:41.641Z,58.82
2023-03-17T07:48:07.463Z,59.74
2023-03-17T07:51:31.450Z,58.74
2023-03-17T07:54:56.052Z,58.98
2023-03-17T07:58:20.329Z,59.22
2023-03-17T08:01:45.103Z,58.39
2023-03-17T08:05:10.651Z,58.56
2023-03-17T08:08:34.480Z,58.67
2023-03-17T08:11:58.323Z,57.06
2023-03-17T08:15:22.747Z,58.53
2023-03-17T08:18:48.020Z,57.41
2023-03-17T08:22:13.437Z,56.61
2023-03-17T08:25:37.463Z,56.13
2023-03-17T08:29:01.444Z,55.25
2023-03-17T08:32:25.389Z,56.25
2023-03-17T08:35:49.788Z,55.34
2023-03-17T08:39:14.083Z,54.99
2023-03-17T08:42:39.475Z,54.54
2023-03-17T08:46:09.932Z,53.82
2023-03-17T08:49:36.203Z,53.51
2023-03-17T08:53:00.127Z,52.02
2023-03-17T08:56:24.212Z,50.64
2023-03-17T08:59:48.720Z,51.48
2023-03-17T09:03:12.526Z,49.21
2023-03-17T09:06:36.564Z,48.83
2023-03-17T09:10:05.187Z,48.51
2023-03-17T09:13:29.431Z,47.13
2023-03-17T09:16:53.810Z,48.09
2023-03-17T09:20:17.985Z,48.98
2023-03-17T09:23:42.260Z,46.34
2023-03-17T09:27:06.487Z,46.21
2023-03-17T09:30:30.889Z,46.23
2023-03-17T09:33:54.883Z,46.42
2023-03-17T09:37:18.780Z,47.34
2023-03-17T09:40:54.172Z,46.11
2023-03-17T09:44:56.567Z,46.30
2023-03-17T09:49:00.956Z,45.08
2023-03-17T09:52:30.379Z,45.19
2023-03-17T09:55:59.914Z,44.40
2023-03-17T09:59:53.873Z,44.61
2023-03-17T10:03:17.741Z,42.48
2023-03-17T10:06:46.939Z,41.67
2023-03-17T10:10:51.438Z,40.50
2023-03-17T10:14:46.237Z,41.17
2023-03-17T10:18:16.173Z,41.24
2023-03-17T10:22:05.168Z,41.03
2023-03-17T10:25:33.063Z,41.54
2023-03-17T10:28:57.505Z,41.65
2023-03-17T10:32:21.724Z,41.18
2023-03-17T10:35:45.810Z,41.89
2023-03-17T10:39:14.626Z,42.32
2023-03-17T10:42:56.462Z,41.42
2023-03-17T10:46:30.031Z,41.54
2023-03-17T10:49:53.967Z,41.71
2023-03-17T10:53:28.518Z,41.76
2023-03-17T10:57:02.572Z,42.66
2023-03-17T11:00:30.568Z,42.52
2023-03-17T11:03:56.387Z,40.10
2023-03-17T11:07:31.551Z,40.09
2023-03-17T11:10:57.728Z,39.83
2023-03-17T11:14:28.411Z,40.22
2023-03-17T11:18:17.139Z,40.40
2023-03-17T11:22:05.146Z,40.63
2023-03-17T11:25:30.302Z,38.91
2023-03-17T11:29:22.505Z,39.63
2023-03-17T11:33:08.110Z,38.85
2023-03-17T11:37:07.266Z,38.04
2023-03-17T11:41:09.141Z,36.97
2023-03-17T11:44:51.962Z,37.38
2023-03-17T11:48:44.779Z,38.73
2023-03-17T11:52:22.131Z,37.19
2023-03-17T11:55:58.833Z,37.40
2023-03-17T12:00:04.538Z,36.57
2023-03-17T12:03:55.401Z,35.85
2023-03-17T12:07:24.834Z,34.20
2023-03-17T12:10:55.638Z,35.07
2023-03-17T12:14:34.969Z,35.91
2023-03-17T12:18:07.050Z,35.50
2023-03-17T12:21:45.732Z,35.70
2023-03-17T12:25:35.173Z,35.01
2023-03-17T12:29:01.519Z,35.85
2023-03-17T12:32:50.958Z,37.41
2023-03-17T12:36:17.251Z,37.52
2023-03-17T12:39:50.299Z,36.59
2023-03-17T12:43:37.123Z,36.30
2023-03-17T12:47:26.681Z,36.90
2023-03-17T12:51:12.573Z,36.24
2023-03-17T12:54:39.516Z,35.42
2023-03-17T12:58:07.797Z,35.74
2023-03-17T13:01:46.488Z,35.83
2023-03-17T13:05:16.115Z,36.42
2023-03-17T13:08:43.775Z,36.51
2023-03-17T13:12:08.866Z,37.06
2023-03-17T13:15:36.222Z,36.86
2023-03-17T13:19:19.367Z,35.76
2023-03-17T13:23:03.465Z,34.38
2023-03-17T13:27:01.858Z,36.26
2023-03-17T13:30:26.327Z,35.87
2023-03-17T13:33:54.084Z,35.97
2023-03-17T13:37:41.747Z,35.56
2023-03-17T13:41:27.456Z,34.48
2023-03-17T13:45:29.427Z,36.09
2023-03-17T13:48:56.359Z,35.19
2023-03-17T13:52:50.768Z,34.82
2023-03-17T13:56:19.957Z,35.61
2023-03-17T13:59:58.787Z,34.70
2023-03-17T14:03:37.658Z,36.13
2023-03-17T14:07:10.835Z,35.31
2023-03-17T14:10:36.398Z,35.64
2023-03-17T14:14:39.165Z,35.46
2023-03-17T14:18:16.139Z,37.56
2023-03-17T14:21:40.845Z,36.13
2023-03-17T14:25:09.629Z,35.50
2023-03-17T14:28:38.619Z,35.99
2023-03-17T14:32:27.513Z,35.64
2023-03-17T14:36:27.356Z,36.12
2023-03-17T14:40:39.423Z,35.65
2023-03-17T14:44:37.393Z,36.45
2023-03-17T14:48:42.421Z,36.56
2023-03-17T14:52:43.382Z,37.34
2023-03-17T14:56:53.383Z,37.17
2023-03-17T15:00:57.387Z,37.30
2023-03-17T15:05:08.349Z,36.58
2023-03-17T15:09:07.355Z,36.26
2023-03-17T15:13:15.571Z,36.67
2023-03-17T15:17:16.337Z,36.99
2023-03-17T15:21:14.334Z,36.94
2023-03-17T15:25:17.345Z,36.74
2023-03-17T15:29:15.374Z,37.10
2023-03-17T15:33:16.314Z,37.22
2023-03-17T15:37:14.398Z,37.44
2023-03-17T15:41:12.381Z,37.63
2023-03-17T15:45:10.461Z,37.96
2023-03-17T15:49:08.338Z,38.18
2023-03-17T15:53:06.324Z,38.39
2023-03-17T15:57:04.285Z,38.72
2023-03-17T16:01:07.356Z,39.20
2023-03-17T16:05:05.265Z,39.38
2023-03-17T16:09:04.335Z,39.76
2023-03-17T16:13:03.291Z,40.11
2023-03-17T16:17:02.372Z,40.67
2023-03-17T16:21:05.244Z,40.66
2023-03-17T16:25:03.347Z,41.01
2023-03-17T16:29:01.353Z,41.76
2023-03-17T16:33:00.489Z,41.97
2023-03-17T16:36:58.208Z,43.28
2023-03-17T16:40:57.318Z,43.53
2023-03-17T16:44:57.343Z,43.58
2023-03-17T16:48:56.351Z,44.29
2023-03-17T16:52:55.256Z,44.84
2023-03-17T16:56:55.333Z,45.10
2023-03-17T17:00:53.449Z,45.41
2023-03-17T17:04:51.248Z,46.12
2023-03-17T17:08:49.197Z,46.25
2023-03-17T17:12:47.210Z,46.69
2023-03-17T17:16:50.307Z,47.56
2023-03-17T17:20:52.277Z,47.77
2023-03-17T17:24:50.350Z,48.02
2023-03-17T17:28:49.250Z,48.56
2023-03-17T17:32:48.263Z,48.10
2023-03-17T17:36:46.328Z,48.98
2023-03-17T17:40:44.161Z,49.85
2023-03-17T17:44:42.181Z,49.06
2023-03-17T17:48:41.174Z,49.15
2023-03-17T17:52:39.268Z,49.91
2023-03-17T17:56:37.249Z,50.28
2023-03-17T18:00:35.185Z,49.21
2023-03-17T18:04:33.307Z,49.93
2023-03-17T18:08:31.605Z,50.33
2023-03-17T18:12:29.103Z,50.93
2023-03-17T18:16:31.356Z,52.18
2023-03-17T18:20:31.448Z,51.51
2023-03-17T18:24:31.115Z,51.87
2023-03-17T18:28:29.264Z,51.54
2023-03-17T18:32:30.540Z,51.01
2023-03-17T18:36:28.191Z,51.62
2023-03-17T18:40:26.287Z,52.34
2023-03-17T18:44:25.179Z,52.61
2023-03-17T18:48:23.067Z,51.99
2023-03-17T18:52:22.093Z,52.75
2023-03-17T18:56:20.113Z,53.21
2023-03-17T19:00:19.141Z,53.22
2023-03-17T19:04:17.083Z,53.46
2023-03-17T19:08:18.020Z,53.05
2023-03-17T19:12:16.027Z,53.25
2023-03-17T19:16:13.985Z,53.29
2023-03-17T19:20:12.086Z,52.73
2023-03-17T19:24:15.015Z,52.69
2023-03-17T19:28:13.172Z,52.68
2023-03-17T19:32:13.011Z,52.52
2023-03-17T19:36:12.120Z,52.54
2023-03-17T19:40:09.992Z,52.43
2023-03-17T19:44:08.422Z,52.29
2023-03-17T19:48:05.963Z,52.38
2023-03-17T19:52:04.998Z,52.19
2023-03-17T19:56:03.024Z,52.28
2023-03-17T20:00:02.005Z,52.03
2023-03-17T20:04:01.085Z,52.09
2023-03-17T20:07:58.974Z,52.08
2023-03-17T20:11:58.012Z,52.26
2023-03-17T20:15:56.932Z,52.17
2023-03-17T20:19:54.918Z,52.27
2023-03-17T20:23:53.019Z,52.54
2023-03-17T20:27:58.940Z,52.62
2023-03-17T20:31:57.996Z,52.77
2023-03-17T20:36:00.969Z,52.89
2023-03-17T20:40:00.931Z,52.92
2023-03-17T20:43:59.925Z,53.45
2023-03-17T20:47:58.280Z,53.76
2023-03-17T20:51:56.955Z,53.95
2023-03-17T20:55:56.977Z,53.98
2023-03-17T20:59:57.901Z,54.20
2023-03-17T21:03:58.979Z,54.51
2023-03-17T21:07:59.933Z,54.47
2023-03-17T21:11:57.998Z,54.75
2023-03-17T21:16:01.964Z,54.74
2023-03-17T21:20:02.904Z,54.97
2023-03-17T21:24:03.775Z,55.48
2023-03-17T21:28:01.918Z,55.08
2023-03-17T21:32:04.892Z,55.25
2023-03-17T21:36:08.265Z,55.46
2023-03-17T21:40:06.847Z,55.95
2023-03-17T21:44:04.983Z,55.59
2023-03-17T21:48:02.803Z,55.72
2023-03-17T21:52:07.907Z,56.09
2023-03-17T21:56:07.791Z,56.02
2023-03-17T22:00:05.836Z,56.32
2023-03-17T22:04:04.806Z,56.25
2023-03-17T22:08:03.001Z,56.43
2023-03-17T22:12:00.880Z,56.69
2023-03-17T22:17:05.813Z,56.94
2023-03-17T22:21:07.771Z,56.72
2023-03-17T22:25:06.840Z,57.22
2023-03-17T22:29:06.804Z,57.20
2023-03-17T22:33:04.879Z,57.19
2023-03-17T22:37:02.785Z,56.89
2023-03-17T22:41:00.859Z,57.06
2023-03-17T22:45:01.204Z,57.47
2023-03-17T22:48:59.900Z,57.10
2023-03-17T22:52:57.771Z,57.39
2023-03-17T22:56:55.789Z,57.43
2023-03-17T23:00:54.805Z,57.19
2023-03-17T23:04:52.744Z,57.21
2023-03-17T23:08:52.794Z,57.15
2023-03-17T23:12:50.845Z,57.27
2023-03-17T23:16:48.799Z,57.85
2023-03-17T23:20:47.811Z,57.61
2023-03-17T23:24:45.805Z,57.85
2023-03-17T23:28:43.760Z,57.92
2023-03-17T23:32:42.869Z,57.87
2023-03-17T23:36:40.735Z,58.16
2023-03-17T23:40:39.771Z,58.30
2023-03-17T23:44:37.743Z,58.33
2023-03-17T23:48:35.711Z,58.19
2023-03-17T23:52:34.735Z,58.14
2023-03-17T23:56:32.690Z,58.16
